Time;durP1;ratioP1;P1;durP2;ratioP2;P2;SDS_P1;SDS_P2;PMS_P1;PMS_P2;Temp;Humidity;BMP_temperature;BMP_pressure;BME280_temperature;BME280_humidity;BME280_pressure;Samples;Min_cycle;Max_cycle;Signal;HPM_P1;HPM_P2
2023/10/01 00:00:36;;;;;;;71.50;5.88;;;27.60;52.00;;;;;;5058410;28;20075;-67
2023/10/01 00:03:06;;;;;;;81.07;7.05;;;27.60;52.20;;;;;;5050489;28;20444;-69
2023/10/01 00:05:32;;;;;;;66.45;6.20;;;27.50;52.70;;;;;;5049310;28;20111;-66
2023/10/01 00:07:59;;;;;;;69.55;5.85;;;27.30;52.90;;;;;;5050328;28;20096;-67
2023/10/01 00:10:27;;;;;;;63.00;5.25;;;27.30;53.30;;;;;;5057567;28;20079;-68
2023/10/01 00:12:57;;;;;;;71.40;6.68;;;27.40;52.90;;;;;;5056008;28;20092;-75
2023/10/01 00:15:26;;;;;;;105.93;9.57;;;27.30;53.20;;;;;;5049637;28;20083;-72
2023/10/01 00:17:53;;;;;;;80.90;7.38;;;27.00;53.80;;;;;;5049521;28;20557;-65
2023/10/01 00:20:23;;;;;;;61.25;6.55;;;27.00;53.90;;;;;;5049450;28;20078;-65
2023/10/01 00:23:02;;;;;;;82.68;7.20;;;27.10;54.00;;;;;;5056156;28;20081;-67
2023/10/01 00:25:29;;;;;;;88.88;7.65;;;26.90;54.30;;;;;;5049742;28;20444;-69
2023/10/01 00:28:00;;;;;;;82.15;6.43;;;26.70;54.70;;;;;;5054614;28;20178;-67
2023/10/01 00:30:32;;;;;;;87.63;8.05;;;26.60;55.20;;;;;;5048484;28;20076;-67
2023/10/01 00:33:00;;;;;;;75.18;6.68;;;26.70;55.20;;;;;;5054848;28;20110;-67
2023/10/01 00:35:26;;;;;;;66.72;5.55;;;26.50;56.00;;;;;;5049479;28;20433;-65
2023/10/01 00:37:53;;;;;;;64.68;6.40;;;26.30;56.20;;;;;;5051741;28;20077;-67
2023/10/01 00:40:20;;;;;;;83.28;6.40;;;26.30;56.50;;;;;;5061711;28;20159;-65
2023/10/01 00:42:47;;;;;;;66.88;6.13;;;26.10;57.00;;;;;;5057723;28;20617;-67
2023/10/01 00:45:16;;;;;;;56.47;4.93;;;26.20;57.20;;;;;;5050761;28;20080;-66
2023/10/01 00:47:45;;;;;;;48.33;5.22;;;25.90;57.60;;;;;;5051361;28;20618;-68
2023/10/01 00:50:16;;;;;;;38.38;4.75;;;25.90;57.90;;;;;;5060523;28;20075;-65
2023/10/01 00:52:44;;;;;;;44.53;6.70;;;25.80;57.90;;;;;;5054838;28;20095;-68
2023/10/01 00:55:13;;;;;;;29.40;3.95;;;25.70;57.90;;;;;;5056200;28;20098;-66
2023/10/01 00:57:41;;;;;;;27.77;3.65;;;25.80;58.00;;;;;;5048689;28;20083;-72
2023/10/01 01:00:16;;;;;;;20.58;4.32;;;25.70;58.00;;;;;;5054870;28;20089;-67
2023/10/01 01:02:57;;;;;;;35.80;3.53;;;25.70;58.20;;;;;;5055496;28;20082;-69
2023/10/01 01:05:37;;;;;;;36.60;4.75;;;25.60;58.70;;;;;;5049677;28;20111;-70
2023/10/01 01:08:27;;;;;;;43.22;6.57;;;25.40;58.40;;;;;;5049365;28;20097;-67
2023/10/01 01:10:56;;;;;;;28.40;5.53;;;25.40;58.40;;;;;;5047466;28;20090;-71
2023/10/01 01:13:25;;;;;;;23.98;4.85;;;25.40;58.20;;;;;;5050516;28;20114;-67
2023/10/01 01:15:52;;;;;;;32.28;4.65;;;25.30;58.80;;;;;;5050342;28;20087;-68
2023/10/01 01:18:22;;;;;;;27.40;3.22;;;25.30;58.20;;;;;;5055089;28;20083;-64
2023/10/01 01:20:49;;;;;;;23.90;3.30;;;25.10;58.50;;;;;;5056300;28;20111;-67
2023/10/01 01:23:17;;;;;;;23.25;2.88;;;25.10;58.60;;;;;;5050240;28;20095;-66
2023/10/01 01:25:44;;;;;;;21.00;3.53;;;25.00;58.50;;;;;;5051102;28;20087;-67
2023/10/01 01:28:15;;;;;;;21.00;4.53;;;24.90;58.80;;;;;;5048758;28;20102;-68
2023/10/01 01:30:47;;;;;;;17.15;4.45;;;24.90;58.50;;;;;;5049043;28;20106;-69
2023/10/01 01:33:13;;;;;;;19.77;3.13;;;24.90;58.60;;;;;;5050627;28;20129;-66
2023/10/01 01:35:43;;;;;;;17.20;2.78;;;24.90;58.80;;;;;;5049713;28;20091;-65
2023/10/01 01:38:20;;;;;;;18.27;3.45;;;24.80;58.60;;;;;;5112378;27;20162;-55
2023/10/01 01:40:50;;;;;;;25.20;3.03;;;24.90;58.80;;;;;;5111920;28;20088;-56
2023/10/01 01:43:23;;;;;;;19.00;3.00;;;24.80;58.40;;;;;;5089429;28;20475;-52
2023/10/01 01:45:54;;;;;;;25.60;2.72;;;24.70;58.10;;;;;;5109318;28;20113;-58
2023/10/01 01:48:30;;;;;;;18.35;2.47;;;24.80;57.90;;;;;;5110432;28;20107;-55
2023/10/01 01:51:00;;;;;;;27.08;2.63;;;24.70;58.10;;;;;;5111569;28;20081;-56
2023/10/01 01:53:34;;;;;;;21.67;2.17;;;24.80;57.60;;;;;;5107710;28;20554;-61
2023/10/01 01:56:08;;;;;;;19.08;2.42;;;24.70;57.40;;;;;;5110092;28;20070;-64
2023/10/01 01:58:35;;;;;;;21.88;2.55;;;24.80;57.30;;;;;;5111065;28;21129;-61
2023/10/01 02:01:08;;;;;;;20.05;2.60;;;24.80;57.10;;;;;;5110568;28;20432;-61
2023/10/01 02:03:39;;;;;;;16.38;2.53;;;24.70;57.40;;;;;;5111561;28;20085;-61
2023/10/01 02:06:08;;;;;;;24.48;3.28;;;24.70;57.60;;;;;;5108893;28;20563;-56
2023/10/01 02:08:44;;;;;;;29.20;3.63;;;24.70;57.40;;;;;;5108198;28;20135;-63
2023/10/01 02:11:11;;;;;;;21.48;2.30;;;24.70;57.70;;;;;;5112777;28;20531;-62
2023/10/01 02:13:41;;;;;;;25.25;3.65;;;24.60;57.80;;;;;;5109545;28;20092;-63
2023/10/01 02:16:35;;;;;;;29.20;2.97;;;24.60;57.90;;;;;;5104821;28;20082;-62
2023/10/01 02:19:21;;;;;;;31.10;2.78;;;24.50;58.10;;;;;;5107644;28;20602;-58
2023/10/01 02:21:52;;;;;;;8.32;2.40;;;24.50;58.30;;;;;;5109348;28;20161;-59
2023/10/01 02:24:28;;;;;;;15.60;2.40;;;24.50;58.10;;;;;;5110664;28;20513;-63
2023/10/01 02:26:59;;;;;;;11.65;2.13;;;24.50;58.00;;;;;;5110252;28;20093;-65
2023/10/01 02:29:31;;;;;;;17.42;1.85;;;24.30;57.80;;;;;;5112700;28;20132;-64
2023/10/01 02:32:03;;;;;;;12.80;2.28;;;24.30;57.50;;;;;;5113475;28;20085;-64
2023/10/01 02:34:31;;;;;;;18.25;1.90;;;24.20;57.80;;;;;;5110911;28;20082;-62
2023/10/01 02:36:58;;;;;;;17.35;2.25;;;24.20;57.90;;;;;;5112617;28;20174;-61
2023/10/01 02:39:28;;;;;;;14.18;2.05;;;24.20;58.20;;;;;;5109734;28;20078;-62
2023/10/01 02:44:41;;;;;;;13.73;2.67;;;24.20;58.50;;;;;;5106820;28;20123;-60
2023/10/01 02:47:20;;;;;;;20.75;2.80;;;24.30;59.10;;;;;;5110944;28;20427;-62
2023/10/01 02:49:59;;;;;;;14.93;2.40;;;24.20;58.50;;;;;;5096202;28;20152;-62
2023/10/01 02:52:36;;;;;;;7.95;2.47;;;24.20;58.60;;;;;;5097094;28;20111;-62
2023/10/01 02:55:16;;;;;;;10.15;2.40;;;24.30;58.80;;;;;;5097522;28;20074;-61
2023/10/01 02:57:50;;;;;;;13.32;2.90;;;24.30;58.50;;;;;;5106167;28;20093;-62
2023/10/01 03:02:52;;;;;;;19.38;2.65;;;24.20;58.70;;;;;;5094025;28;20105;-63
2023/10/01 03:05:28;;;;;;;13.10;2.78;;;24.20;58.60;;;;;;5098279;28;20536;-66
2023/10/01 03:08:03;;;;;;;10.65;2.30;;;24.10;58.30;;;;;;5098692;28;20497;-64
2023/10/01 03:10:31;;;;;;;21.70;2.88;;;24.10;58.30;;;;;;5102369;28;20081;-66
2023/10/01 03:13:00;;;;;;;23.67;2.38;;;24.10;58.40;;;;;;5096294;28;20597;-63
2023/10/01 03:15:34;;;;;;;16.48;2.97;;;24.00;58.00;;;;;;5096715;28;20089;-63
2023/10/01 03:18:34;;;;;;;26.17;3.03;;;24.00;57.90;;;;;;5094931;28;20126;-62
2023/10/01 03:28:35;;;;;;;20.23;2.88;;;24.00;57.60;;;;;;5092974;28;20096;-63
2023/10/01 03:31:08;;;;;;;15.57;2.03;;;24.00;58.00;;;;;;5093282;28;20085;-63
2023/10/01 03:33:40;;;;;;;11.75;2.20;;;24.00;58.00;;;;;;5092816;28;20163;-62
2023/10/01 03:36:09;;;;;;;21.90;3.38;;;23.90;57.90;;;;;;5094805;28;20086;-64
2023/10/01 03:38:47;;;;;;;24.40;3.55;;;23.90;57.90;;;;;;5100060;28;20161;-62
2023/10/01 03:41:23;;;;;;;24.35;2.78;;;23.90;57.90;;;;;;5103558;28;20424;-62
2023/10/01 03:43:55;;;;;;;27.85;2.97;;;23.90;57.90;;;;;;5089841;28;20793;-65
2023/10/01 03:48:58;;;;;;;34.80;3.22;;;23.80;57.60;;;;;;5091848;28;20086;-63
2023/10/01 03:54:26;;;;;;;42.25;4.78;;;23.80;57.80;;;;;;5092969;28;20165;-57
2023/10/01 03:56:56;;;;;;;24.97;2.57;;;23.80;58.10;;;;;;5098169;28;20098;-56
2023/10/01 03:59:24;;;;;;;26.73;2.90;;;23.70;58.70;;;;;;5095944;28;20788;-52
2023/10/01 04:02:00;;;;;;;23.60;2.70;;;23.70;59.10;;;;;;5093460;28;20116;-56
2023/10/01 04:05:05;;;;;;;21.50;2.35;;;23.70;59.70;;;;;;5092969;28;20074;-54
2023/10/01 04:07:22;;;;;;;9.65;1.75;;;23.70;60.30;;;;;;5091055;28;20173;-55
2023/10/01 04:09:51;;;;;;;13.48;2.35;;;23.50;61.90;;;;;;5096852;28;20089;-55
2023/10/01 04:12:19;;;;;;;9.32;1.52;;;23.50;61.70;;;;;;5089009;28;20512;-62
2023/10/01 04:14:52;;;;;;;21.65;2.50;;;23.40;62.20;;;;;;5095459;28;20078;-62
2023/10/01 04:17:20;;;;;;;9.80;2.30;;;23.40;62.30;;;;;;5098608;28;20095;-58
2023/10/01 04:19:56;;;;;;;18.17;2.50;;;23.30;62.20;;;;;;5089588;28;20504;-57
2023/10/01 04:22:25;;;;;;;14.48;2.03;;;23.20;62.60;;;;;;5096445;28;20681;-58
2023/10/01 04:25:10;;;;;;;19.80;1.90;;;23.20;62.70;;;;;;5091629;28;20074;-61
2023/10/01 04:27:41;;;;;;;25.67;2.80;;;23.20;63.50;;;;;;5092036;28;20078;-61
2023/10/01 04:30:10;;;;;;;11.75;2.05;;;23.10;64.20;;;;;;5092929;28;20090;-56
2023/10/01 04:32:37;;;;;;;11.30;1.65;;;23.00;64.50;;;;;;5090348;28;20088;-63
2023/10/01 04:35:14;;;;;;;11.02;1.50;;;22.80;64.90;;;;;;5095287;28;20091;-56
2023/10/01 04:37:42;;;;;;;14.27;1.55;;;22.80;64.70;;;;;;5098001;28;20582;-55
2023/10/01 04:43:08;;;;;;;9.43;1.58;;;22.80;64.70;;;;;;5097885;28;20128;-57
2023/10/01 04:45:40;;;;;;;19.25;1.58;;;22.80;64.50;;;;;;5099491;28;20606;-55
2023/10/01 04:48:22;;;;;;;5.78;1.08;;;22.80;64.60;;;;;;5094421;28;20218;-53
2023/10/01 04:50:50;;;;;;;9.93;1.42;;;22.80;64.50;;;;;;5091630;28;20451;-54
2023/10/01 04:53:20;;;;;;;10.45;1.30;;;22.80;64.50;;;;;;5094053;28;20070;-57
2023/10/01 04:56:10;;;;;;;17.27;1.40;;;22.80;64.70;;;;;;5093685;28;20093;-57
2023/10/01 04:58:38;;;;;;;7.20;1.10;;;22.80;64.60;;;;;;5095684;28;20102;-54
2023/10/01 05:01:07;;;;;;;8.88;1.63;;;22.90;64.60;;;;;;5096671;28;20091;-55
2023/10/01 05:03:39;;;;;;;10.50;1.70;;;22.90;64.70;;;;;;5094680;28;20451;-56
2023/10/01 05:06:13;;;;;;;10.63;1.20;;;22.90;64.80;;;;;;5096381;28;20098;-57
2023/10/01 05:08:43;;;;;;;8.98;0.95;;;22.90;64.60;;;;;;5093257;28;20089;-57
2023/10/01 05:11:16;;;;;;;7.15;1.38;;;22.90;64.50;;;;;;5101877;28;20077;-56
2023/10/01 05:13:47;;;;;;;5.63;1.10;;;22.90;64.90;;;;;;5098855;28;20100;-55
2023/10/01 05:16:18;;;;;;;6.50;0.90;;;22.90;65.00;;;;;;5091110;28;20084;-58
2023/10/01 05:19:03;;;;;;;4.97;1.10;;;22.90;64.60;;;;;;5092686;28;20094;-53
2023/10/01 05:21:36;;;;;;;17.95;1.88;;;22.90;64.80;;;;;;5089912;28;20084;-54
2023/10/01 05:24:03;;;;;;;38.78;3.40;;;22.90;64.50;;;;;;5093383;28;20073;-51
2023/10/01 05:26:35;;;;;;;41.92;3.70;;;22.80;64.10;;;;;;5096895;28;20090;-58
2023/10/01 05:29:05;;;;;;;68.78;5.05;;;22.80;64.50;;;;;;5091145;28;20077;-60
2023/10/01 05:31:34;;;;;;;73.28;6.63;;;22.80;64.00;;;;;;5092231;28;20214;-62
2023/10/01 05:34:01;;;;;;;109.20;7.80;;;22.80;63.70;;;;;;5090219;28;20093;-61
2023/10/01 05:36:29;;;;;;;118.25;9.10;;;22.80;63.30;;;;;;5094643;28;20454;-61
2023/10/01 05:38:55;;;;;;;126.82;9.68;;;22.80;63.30;;;;;;5085804;28;20088;-60
2023/10/01 05:41:32;;;;;;;138.30;9.10;;;22.70;63.00;;;;;;5101924;28;20073;-62
2023/10/01 05:44:04;;;;;;;;;;;22.70;63.50;;;;;;5091987;28;20081;-63
2023/10/01 05:46:30;;;;;;;142.15;10.13;;;22.60;63.60;;;;;;5096136;28;19972;-62
2023/10/01 05:49:00;;;;;;;164.98;10.90;;;22.60;63.80;;;;;;5088313;28;20444;-64
2023/10/01 05:51:36;;;;;;;229.93;16.70;;;22.60;64.00;;;;;;5091158;28;20093;-61
2023/10/01 05:54:02;;;;;;;225.00;12.70;;;22.60;64.20;;;;;;5095034;28;20478;-61
2023/10/01 05:56:36;;;;;;;193.82;12.05;;;22.50;64.10;;;;;;5091828;28;20467;-61
2023/10/01 05:59:06;;;;;;;157.70;10.93;;;22.50;64.00;;;;;;5094195;28;20073;-61
2023/10/01 06:01:33;;;;;;;148.55;10.57;;;22.50;63.80;;;;;;5092964;28;20093;-63
2023/10/01 06:04:00;;;;;;;141.45;8.68;;;22.60;63.90;;;;;;5090912;28;20105;-61
2023/10/01 06:06:27;;;;;;;93.78;7.70;;;22.60;64.10;;;;;;5091890;28;20094;-55
2023/10/01 06:09:01;;;;;;;114.32;9.95;;;22.60;64.20;;;;;;5092074;28;20079;-56
2023/10/01 06:11:38;;;;;;;122.38;10.35;;;22.60;64.30;;;;;;5095869;28;20085;-54
2023/10/01 06:14:36;;;;;;;116.47;10.18;;;22.60;64.10;;;;;;5092581;28;20101;-61
2023/10/01 06:17:00;;;;;;;171.75;11.57;;;22.60;64.30;;;;;;5092867;28;20180;-61
2023/10/01 06:19:34;;;;;;;180.43;11.32;;;22.70;64.00;;;;;;5092058;28;20069;-60
2023/10/01 06:22:12;;;;;;;171.80;12.52;;;22.70;63.90;;;;;;5091477;28;20089;-61
2023/10/01 06:24:42;;;;;;;170.18;11.70;;;22.70;64.00;;;;;;5096007;28;20233;-61
2023/10/01 06:27:12;;;;;;;175.43;11.93;;;22.70;64.50;;;;;;5106778;28;20092;-62
2023/10/01 06:29:51;;;;;;;155.57;9.85;;;22.60;64.80;;;;;;5097956;28;20558;-59
2023/10/01 06:32:22;;;;;;;160.15;9.80;;;22.50;64.70;;;;;;5098736;28;20493;-61
2023/10/01 06:34:57;;;;;;;137.65;8.35;;;22.50;65.10;;;;;;5094982;28;20085;-61
2023/10/01 06:37:25;;;;;;;147.85;10.23;;;22.60;64.90;;;;;;5097106;28;20196;-63
2023/10/01 06:39:52;;;;;;;126.82;8.77;;;22.50;64.90;;;;;;5091686;28;20077;-62
2023/10/01 06:42:18;;;;;;;137.13;8.43;;;22.50;64.80;;;;;;5091009;28;20066;-62
2023/10/01 06:44:49;;;;;;;116.15;8.88;;;22.40;64.90;;;;;;5104784;28;20161;-58
2023/10/01 06:47:22;;;;;;;84.55;7.00;;;22.30;64.60;;;;;;5098350;28;20630;-60
2023/10/01 06:49:57;;;;;;;59.97;4.38;;;22.30;64.60;;;;;;5092522;28;20128;-62
2023/10/01 06:52:28;;;;;;;82.25;6.13;;;22.40;64.00;;;;;;5094934;28;20619;-56
2023/10/01 06:54:57;;;;;;;72.00;4.43;;;22.40;63.60;;;;;;5095385;28;20134;-58
2023/10/01 06:57:27;;;;;;;67.85;4.88;;;22.40;63.60;;;;;;5090186;28;20092;-56
2023/10/01 06:59:58;;;;;;;75.75;5.03;;;22.50;63.50;;;;;;5095805;28;20075;-57
2023/10/01 07:02:25;;;;;;;94.13;6.50;;;22.50;63.60;;;;;;5093269;28;20125;-57
2023/10/01 07:04:59;;;;;;;57.45;4.20;;;22.30;63.60;;;;;;5094537;28;20080;-58
2023/10/01 07:07:28;;;;;;;77.00;7.72;;;22.30;64.10;;;;;;5095830;28;20498;-62
2023/10/01 07:10:00;;;;;;;61.10;13.85;;;22.40;64.40;;;;;;5091166;28;20079;-63
2023/10/01 07:12:27;;;;;;;82.97;9.32;;;22.50;63.60;;;;;;5095420;28;20082;-66
2023/10/01 07:14:54;;;;;;;49.65;4.00;;;22.60;63.80;;;;;;5090693;28;20101;-65
2023/10/01 07:17:25;;;;;;;45.42;3.05;;;22.60;63.50;;;;;;5098081;28;20178;-67
2023/10/01 07:20:18;;;;;;;46.45;3.10;;;22.60;64.10;;;;;;5097278;28;20078;-65
2023/10/01 07:22:45;;;;;;;81.05;4.35;;;22.50;64.20;;;;;;5098525;28;20875;-65
2023/10/01 07:25:37;;;;;;;36.90;3.25;;;22.40;64.90;;;;;;5098052;28;20079;-64
2023/10/01 07:28:12;;;;;;;23.55;2.25;;;22.40;65.30;;;;;;5091719;28;20127;-63
2023/10/01 07:30:51;;;;;;;23.20;2.67;;;22.30;65.80;;;;;;5106030;28;20097;-62
2023/10/01 07:33:18;;;;;;;25.17;2.78;;;22.30;66.20;;;;;;5095840;28;20142;-64
2023/10/01 07:35:58;;;;;;;18.17;2.00;;;22.30;65.80;;;;;;5094654;28;20188;-63
2023/10/01 07:38:46;;;;;;;24.30;2.00;;;22.30;65.80;;;;;;5096000;28;20106;-64
2023/10/01 07:41:16;;;;;;;20.23;1.90;;;22.30;66.30;;;;;;5095875;28;20090;-63
2023/10/01 07:43:43;;;;;;;10.18;1.30;;;22.20;66.60;;;;;;5092270;28;20090;-63
2023/10/01 07:46:10;;;;;;;10.68;1.60;;;22.10;67.20;;;;;;5095689;28;20436;-63
2023/10/01 07:48:38;;;;;;;14.82;1.25;;;22.20;67.00;;;;;;5094274;28;20078;-63
2023/10/01 07:51:22;;;;;;;5.15;1.10;;;22.10;67.20;;;;;;5096012;28;20085;-63
2023/10/01 07:53:52;;;;;;;3.67;1.40;;;22.10;67.50;;;;;;5092120;28;20079;-63
2023/10/01 07:56:21;;;;;;;11.57;2.40;;;22.10;67.50;;;;;;5102312;28;20459;-65
2023/10/01 07:59:17;;;;;;;5.18;1.25;;;22.00;68.00;;;;;;5092688;28;20131;-64
2023/10/01 08:01:37;;;;;;;12.27;7.25;;;22.10;68.40;;;;;;5090985;28;20074;-64
2023/10/01 08:06:50;;;;;;;5.35;1.35;;;21.90;69.20;;;;;;5096474;28;20108;-64
2023/10/01 08:09:17;;;;;;;1.50;1.00;;;21.90;69.40;;;;;;5097177;28;20575;-65
2023/10/01 08:11:58;;;;;;;2.95;1.10;;;22.00;69.30;;;;;;5096352;28;20093;-64
2023/10/01 08:14:33;;;;;;;2.80;1.25;;;22.00;69.10;;;;;;5097821;28;20089;-63
2023/10/01 08:17:02;;;;;;;9.65;1.50;;;22.00;69.00;;;;;;5098226;28;20212;-66
2023/10/01 08:25:08;;;;;;;8.57;1.45;;;21.90;69.00;;;;;;5077675;28;20149;-64
2023/10/01 08:27:34;;;;;;;5.60;1.55;;;21.90;69.40;;;;;;5091561;28;20102;-63
2023/10/01 08:30:19;;;;;;;4.75;1.35;;;21.90;69.30;;;;;;5097366;28;20074;-61
2023/10/01 08:33:11;;;;;;;3.67;1.25;;;21.90;69.40;;;;;;5097272;28;20084;-64
2023/10/01 08:35:38;;;;;;;3.30;1.20;;;21.90;69.50;;;;;;5094163;28;20137;-62
2023/10/01 08:38:15;;;;;;;2.38;1.38;;;21.80;69.60;;;;;;5091709;28;20103;-63
2023/10/01 08:40:42;;;;;;;4.18;1.00;;;21.80;69.40;;;;;;5098204;28;20089;-63
2023/10/01 08:43:13;;;;;;;9.32;1.63;;;21.90;69.20;;;;;;5091053;28;20661;-64
2023/10/01 08:45:44;;;;;;;1.95;1.30;;;21.80;69.20;;;;;;5094343;28;20078;-63
2023/10/01 08:48:17;;;;;;;5.80;1.95;;;21.90;69.30;;;;;;5093074;28;20077;-64
2023/10/01 08:50:45;;;;;;;3.47;2.22;;;21.80;69.10;;;;;;5092650;28;20090;-62
2023/10/01 08:53:13;;;;;;;6.68;1.70;;;21.80;69.10;;;;;;5088555;28;20093;-63
2023/10/01 09:00:53;;;;;;;3.53;1.48;;;21.80;68.70;;;;;;5096572;28;20104;-62
2023/10/01 09:03:34;;;;;;;6.07;1.33;;;21.90;68.80;;;;;;5095506;28;20078;-63
2023/10/01 09:06:24;;;;;;;5.00;1.83;;;21.90;68.70;;;;;;5095401;28;20429;-63
2023/10/01 09:08:54;;;;;;;5.13;2.55;;;21.80;68.70;;;;;;5094905;28;20072;-61
2023/10/01 09:11:58;;;;;;;4.15;2.08;;;21.90;68.60;;;;;;5096177;28;20088;-63
2023/10/01 09:14:39;;;;;;;3.30;1.70;;;21.80;68.80;;;;;;5097281;28;20131;-63
2023/10/01 09:17:25;;;;;;;7.30;1.17;;;21.80;69.30;;;;;;5091127;28;20147;-61
2023/10/01 09:19:52;;;;;;;2.65;1.20;;;21.80;68.90;;;;;;5095253;28;20089;-62
2023/10/01 09:25:30;;;;;;;4.07;1.10;;;21.70;68.60;;;;;;5088855;28;20081;-61
2023/10/01 09:27:57;;;;;;;2.22;1.05;;;21.70;68.70;;;;;;5096571;28;20482;-61
2023/10/01 09:30:29;;;;;;;3.22;2.30;;;21.80;68.30;;;;;;5091163;28;20079;-63
2023/10/01 09:33:05;;;;;;;3.80;1.40;;;21.70;68.10;;;;;;5088639;28;20511;-62
2023/10/01 09:35:59;;;;;;;2.60;1.20;;;21.60;68.50;;;;;;5090769;28;20494;-62
2023/10/01 09:38:29;;;;;;;2.50;0.80;;;21.60;68.60;;;;;;5091644;28;20216;-64
2023/10/01 09:41:00;;;;;;;1.90;0.75;;;21.70;68.30;;;;;;5093369;28;20082;-63
2023/10/01 09:43:30;;;;;;;3.28;1.02;;;21.60;68.30;;;;;;5089253;28;20545;-61
2023/10/01 09:46:02;;;;;;;6.78;0.98;;;21.50;68.70;;;;;;5095766;28;20556;-62
2023/10/01 09:48:34;;;;;;;1.98;1.15;;;21.50;68.90;;;;;;5094598;28;20088;-63
2023/10/01 09:51:16;;;;;;;3.45;1.00;;;21.60;69.00;;;;;;5093355;28;20083;-63
2023/10/01 09:53:50;;;;;;;4.70;1.17;;;21.60;69.10;;;;;;5090529;28;20079;-63
2023/10/01 09:57:08;;;;;;;2.15;0.93;;;21.60;69.30;;;;;;5101556;28;20099;-62
2023/10/01 09:59:11;;;;;;;1.90;1.00;;;21.60;69.20;;;;;;5093350;28;20161;-62
2023/10/01 10:01:45;;;;;;;1.85;0.93;;;21.60;69.20;;;;;;5094260;28;20190;-60
2023/10/01 10:04:20;;;;;;;2.70;0.80;;;21.50;69.00;;;;;;5093961;28;20489;-64
2023/10/01 10:06:59;;;;;;;3.20;1.35;;;21.50;69.20;;;;;;5090189;28;20078;-63
2023/10/01 10:09:28;;;;;;;7.65;1.00;;;21.50;68.90;;;;;;5097974;28;20081;-62
2023/10/01 10:11:55;;;;;;;1.05;0.88;;;21.50;68.80;;;;;;5090059;28;20083;-63
2023/10/01 10:14:27;;;;;;;1.38;0.90;;;21.50;68.90;;;;;;5094563;28;20117;-61
2023/10/01 10:23:13;;;;;;;1.67;0.93;;;21.40;68.60;;;;;;5097248;28;20093;-63
2023/10/01 10:25:41;;;;;;;3.65;1.10;;;21.40;68.20;;;;;;5097974;28;20457;-62
2023/10/01 10:28:09;;;;;;;1.15;0.75;;;21.50;68.40;;;;;;5092385;28;20083;-60
2023/10/01 10:30:41;;;;;;;1.20;0.88;;;21.40;68.30;;;;;;5098091;28;20116;-61
2023/10/01 10:33:16;;;;;;;2.33;0.73;;;21.40;68.40;;;;;;5108803;28;20083;-62
2023/10/01 10:35:51;;;;;;;1.63;0.80;;;21.40;68.50;;;;;;5098992;28;20528;-62
2023/10/01 10:38:52;;;;;;;3.38;0.82;;;21.40;68.30;;;;;;5100675;28;20113;-62
2023/10/01 10:41:25;;;;;;;1.23;0.90;;;21.40;68.30;;;;;;5096886;28;20074;-62
2023/10/01 10:44:08;;;;;;;1.30;0.80;;;21.40;68.40;;;;;;5097036;28;20489;-62
2023/10/01 10:47:02;;;;;;;0.93;0.80;;;21.50;68.30;;;;;;5098000;28;20085;-62
2023/10/01 10:49:51;;;;;;;0.70;0.70;;;21.40;68.30;;;;;;5094599;28;20083;-65
2023/10/01 10:52:31;;;;;;;1.30;0.75;;;21.40;68.40;;;;;;5087023;28;20082;-67
2023/10/01 10:55:17;;;;;;;0.95;0.75;;;21.40;68.40;;;;;;5096294;28;20080;-67
2023/10/01 10:57:51;;;;;;;1.67;0.70;;;21.60;67.60;;;;;;5096484;28;20091;-67
2023/10/01 11:00:27;;;;;;;1.65;0.88;;;21.60;67.10;;;;;;5096510;28;20128;-67
2023/10/01 11:02:57;;;;;;;1.55;0.80;;;21.50;67.00;;;;;;5097129;28;20140;-66
2023/10/01 11:05:30;;;;;;;0.60;0.60;;;21.40;67.00;;;;;;5094077;28;20124;-67
2023/10/01 11:08:02;;;;;;;0.77;0.77;;;21.50;66.80;;;;;;5093611;28;20074;-68
2023/10/01 11:10:45;;;;;;;0.65;0.65;;;21.50;66.40;;;;;;5095868;28;20090;-68
2023/10/01 11:13:13;;;;;;;1.10;0.70;;;21.60;65.70;;;;;;5093932;28;20096;-65
2023/10/01 11:15:42;;;;;;;1.05;0.60;;;21.50;65.50;;;;;;5098281;28;20587;-66
2023/10/01 11:18:09;;;;;;;3.00;0.70;;;21.60;65.40;;;;;;5098871;28;20095;-65
2023/10/01 11:20:44;;;;;;;3.50;0.70;;;21.50;65.20;;;;;;5095378;28;20446;-65
2023/10/01 11:23:16;;;;;;;1.90;0.68;;;21.50;64.80;;;;;;5094230;28;20074;-65
2023/10/01 11:25:47;;;;;;;2.70;1.00;;;21.60;64.80;;;;;;5098537;28;20427;-65
2023/10/01 11:28:16;;;;;;;1.35;0.85;;;21.60;64.40;;;;;;5094330;28;20092;-66
2023/10/01 11:30:43;;;;;;;1.40;0.80;;;21.60;64.20;;;;;;5092985;28;20426;-66
2023/10/01 11:35:59;;;;;;;5.30;0.90;;;21.50;64.00;;;;;;5100275;28;20075;-66
2023/10/01 11:38:27;;;;;;;1.08;0.85;;;21.50;63.70;;;;;;5093780;28;20107;-65
2023/10/01 11:41:09;;;;;;;1.13;0.90;;;21.50;64.00;;;;;;5096737;28;20544;-65
2023/10/01 11:44:16;;;;;;;2.10;0.80;;;21.50;64.20;;;;;;5089961;28;20079;-65
2023/10/01 11:49:34;;;;;;;2.75;0.98;;;21.50;64.00;;;;;;5097710;28;20086;-65
2023/10/01 11:52:25;;;;;;;2.47;0.80;;;21.40;64.10;;;;;;5091806;28;20077;-66
2023/10/01 11:54:55;;;;;;;1.27;0.80;;;21.40;64.20;;;;;;5093804;28;20105;-66
2023/10/01 11:57:23;;;;;;;2.10;1.20;;;21.50;64.50;;;;;;5090336;28;20090;-66
2023/10/01 11:59:58;;;;;;;1.10;0.60;;;21.40;64.70;;;;;;5097250;28;20574;-66
2023/10/01 12:02:33;;;;;;;3.22;0.90;;;21.50;64.80;;;;;;5090930;28;20086;-67
2023/10/01 12:05:04;;;;;;;1.80;0.80;;;21.40;64.30;;;;;;5094088;28;20113;-66
2023/10/01 12:07:39;;;;;;;1.40;0.80;;;21.30;64.20;;;;;;5094452;28;20079;-67
2023/10/01 12:10:07;;;;;;;1.02;0.75;;;21.30;63.60;;;;;;5098617;28;20552;-67
2023/10/01 12:12:37;;;;;;;1.88;0.82;;;21.30;63.30;;;;;;5097629;28;20089;-67
2023/10/01 12:17:50;;;;;;;1.83;0.98;;;21.20;63.20;;;;;;5097773;28;20628;-66
2023/10/01 12:20:23;;;;;;;1.30;0.75;;;21.30;63.20;;;;;;5099627;28;20110;-66
2023/10/01 12:23:10;;;;;;;2.80;0.73;;;21.40;62.80;;;;;;5095282;28;20072;-68
2023/10/01 12:28:27;;;;;;;2.30;1.20;;;21.40;62.90;;;;;;5095779;28;20097;-66
2023/10/01 12:30:58;;;;;;;5.72;1.33;;;21.40;63.90;;;;;;5093593;28;20082;-67
2023/10/01 12:33:40;;;;;;;5.85;1.20;;;21.30;64.10;;;;;;5092183;28;20087;-66
2023/10/01 12:39:16;;;;;;;5.55;1.48;;;20.90;65.80;;;;;;5091389;28;20101;-69
2023/10/01 12:44:31;;;;;;;2.95;1.30;;;21.00;65.90;;;;;;5101950;28;20113;-66
2023/10/01 12:47:15;;;;;;;7.53;2.20;;;21.00;66.40;;;;;;5099571;28;20079;-65
2023/10/01 12:49:42;;;;;;;6.13;2.00;;;20.90;67.50;;;;;;5094348;28;20592;-66
2023/10/01 12:52:14;;;;;;;3.35;1.75;;;20.80;68.00;;;;;;5094525;28;20105;-66
2023/10/01 12:54:41;;;;;;;5.68;1.90;;;20.80;67.40;;;;;;5097915;28;20121;-66
2023/10/01 12:57:23;;;;;;;3.15;1.50;;;20.70;68.40;;;;;;5093368;28;20667;-65
2023/10/01 13:02:43;;;;;;;6.82;1.33;;;20.70;68.00;;;;;;5091097;28;20082;-65
2023/10/01 13:05:27;;;;;;;6.30;0.97;;;20.60;68.10;;;;;;5094016;28;20074;-65
2023/10/01 13:07:56;;;;;;;5.50;1.52;;;20.50;68.80;;;;;;5095827;28;20079;-67
2023/10/01 13:10:37;;;;;;;7.43;1.63;;;20.50;68.60;;;;;;5096922;28;20110;-66
2023/10/01 13:13:08;;;;;;;4.25;1.30;;;20.50;68.30;;;;;;5095303;28;20143;-67
2023/10/01 13:15:38;;;;;;;4.72;1.10;;;20.50;68.60;;;;;;5098301;28;20422;-67
2023/10/01 13:18:16;;;;;;;4.05;1.10;;;20.40;68.60;;;;;;5090671;28;20123;-67
2023/10/01 13:23:25;;;;;;;5.00;0.90;;;20.50;69.80;;;;;;5091121;28;20084;-66
2023/10/01 13:26:09;;;;;;;5.68;0.95;;;20.50;70.10;;;;;;5103872;28;20090;-65
2023/10/01 13:28:56;;;;;;;6.18;1.30;;;20.50;70.00;;;;;;5098202;28;20096;-68
2023/10/01 13:34:09;;;;;;;5.22;0.90;;;20.40;70.30;;;;;;5096360;28;20079;-66
2023/10/01 13:36:50;;;;;;;5.13;1.10;;;20.40;70.80;;;;;;5093545;28;20105;-65
2023/10/01 13:39:44;;;;;;;10.40;1.30;;;20.50;71.20;;;;;;5095803;28;20612;-66
2023/10/01 14:09:58;;;;;;;8.05;1.90;;;20.40;73.30;;;;;;5082764;28;20087;-67
2023/10/01 14:12:54;;;;;;;3.53;1.60;;;20.60;73.60;;;;;;5092226;28;20083;-66
2023/10/01 14:15:22;;;;;;;6.60;1.20;;;20.70;73.50;;;;;;5098078;28;20146;-66
2023/10/01 14:17:53;;;;;;;7.85;1.60;;;20.80;73.40;;;;;;5092316;28;20113;-66
2023/10/01 14:23:28;;;;;;;6.20;1.27;;;20.70;73.70;;;;;;5095945;28;20074;-65
2023/10/01 14:26:33;;;;;;;8.40;1.50;;;20.70;73.30;;;;;;5097138;28;20166;-66
2023/10/01 14:28:49;;;;;;;6.43;1.60;;;20.70;72.40;;;;;;5090360;28;20084;-67
2023/10/01 14:34:05;;;;;;;5.10;1.35;;;20.80;72.00;;;;;;5088517;28;20093;-65
2023/10/01 14:36:32;;;;;;;8.90;2.67;;;20.80;71.50;;;;;;5094069;28;20090;-65
2023/10/01 14:39:01;;;;;;;8.30;1.77;;;20.80;71.40;;;;;;5091254;28;20070;-66
2023/10/01 14:41:28;;;;;;;3.63;1.67;;;20.80;71.30;;;;;;5097993;28;20100;-66
2023/10/01 14:43:56;;;;;;;5.07;1.50;;;21.00;70.70;;;;;;5095582;28;20066;-66
2023/10/01 14:46:30;;;;;;;5.03;1.30;;;21.00;70.20;;;;;;5097441;28;20087;-66
2023/10/01 14:49:06;;;;;;;4.43;1.30;;;21.10;68.90;;;;;;5096183;28;20136;-67
2023/10/01 14:51:37;;;;;;;5.18;1.02;;;21.20;69.70;;;;;;5096802;28;20074;-65
2023/10/01 14:54:16;;;;;;;6.32;1.02;;;21.20;68.90;;;;;;5093293;28;20082;-66